createdAt,value
2022-12-10T00:01:43.921Z,113.00
2022-12-10T00:04:12.750Z,103.35
2022-12-10T00:06:42.085Z,105.95
2022-12-10T00:11:41.602Z,92.32
2022-12-10T00:14:10.944Z,105.00
2022-12-10T00:16:39.791Z,99.03
2022-12-10T00:19:07.948Z,81.70
2022-12-10T00:21:37.634Z,115.18
2022-12-10T00:24:06.759Z,115.32
2022-12-10T00:26:38.600Z,106.43
2022-12-10T00:29:08.954Z,112.68
2022-12-10T00:31:38.420Z,111.10
2022-12-10T00:36:37.933Z,105.57
2022-12-10T00:39:07.025Z,118.88
2022-12-10T00:41:36.787Z,89.15
2022-12-10T00:44:05.216Z,122.82
2022-12-10T00:46:33.671Z,115.90
2022-12-10T00:49:01.990Z,142.15
2022-12-10T00:51:30.326Z,126.50
2022-12-10T00:53:59.934Z,119.05
2022-12-10T00:56:30.351Z,131.07
2022-12-10T00:59:01.014Z,130.15
2022-12-10T01:01:32.488Z,121.68
2022-12-10T01:04:02.943Z,123.00
2022-12-10T01:06:33.142Z,128.55
2022-12-10T01:09:03.090Z,126.47
2022-12-10T01:11:35.006Z,128.10
2022-12-10T01:14:04.874Z,129.55
2022-12-10T01:16:33.069Z,133.85
2022-12-10T01:19:01.688Z,141.50
2022-12-10T01:21:31.332Z,126.67
2022-12-10T01:24:00.895Z,127.25
2022-12-10T01:26:31.653Z,140.32
2022-12-10T01:29:00.448Z,162.25
2022-12-10T01:31:32.764Z,149.35
2022-12-10T01:34:02.388Z,133.57
2022-12-10T01:38:59.887Z,118.68
2022-12-10T01:41:31.258Z,133.85
2022-12-10T01:44:01.476Z,208.30
2022-12-10T01:46:33.008Z,156.63
2022-12-10T01:49:03.658Z,143.90
2022-12-10T01:51:37.990Z,127.43
2022-12-10T01:54:09.025Z,170.38
2022-12-10T01:56:40.038Z,148.57
2022-12-10T01:59:08.914Z,158.75
2022-12-10T02:01:52.199Z,134.15
2022-12-10T02:04:30.357Z,161.95
2022-12-10T02:07:02.707Z,149.20
2022-12-10T02:09:37.969Z,161.85
2022-12-10T02:12:14.229Z,148.48
2022-12-10T02:14:53.086Z,146.40
2022-12-10T02:17:28.491Z,164.38
2022-12-10T02:20:06.787Z,149.23
2022-12-10T02:22:38.991Z,158.10
2022-12-10T02:25:10.039Z,142.80
2022-12-10T02:27:47.130Z,136.57
2022-12-10T02:30:17.305Z,124.63
2022-12-10T02:32:48.807Z,145.43
2022-12-10T02:35:22.041Z,139.90
2022-12-10T02:37:53.342Z,170.70
2022-12-10T02:40:27.329Z,161.30
2022-12-10T02:42:55.620Z,161.32
2022-12-10T02:45:29.469Z,151.57
2022-12-10T02:48:00.613Z,177.52
2022-12-10T02:50:29.302Z,157.27
2022-12-10T02:52:57.388Z,167.35
2022-12-10T02:55:25.650Z,162.52
2022-12-10T02:58:09.050Z,160.80
2022-12-10T03:00:46.382Z,148.80
2022-12-10T03:03:25.877Z,160.60
2022-12-10T03:08:29.223Z,132.95
2022-12-10T03:11:01.518Z,172.60
2022-12-10T03:13:32.035Z,142.65
2022-12-10T03:16:02.862Z,154.68
2022-12-10T03:18:32.751Z,146.02
2022-12-10T03:21:04.907Z,168.18
2022-12-10T03:23:35.402Z,131.25
2022-12-10T03:26:05.729Z,200.07
2022-12-10T03:28:39.730Z,163.85
2022-12-10T03:31:11.833Z,146.85
2022-12-10T03:33:40.832Z,138.10
2022-12-10T03:36:10.615Z,129.18
2022-12-10T03:38:39.477Z,132.20
2022-12-10T03:41:07.848Z,100.78
2022-12-10T03:43:36.430Z,141.75
2022-12-10T03:46:05.109Z,130.63
2022-12-10T03:48:34.623Z,105.03
2022-12-10T03:53:30.669Z,142.15
2022-12-10T03:55:58.786Z,143.85
2022-12-10T03:58:26.967Z,144.13
2022-12-10T04:00:56.124Z,148.43
2022-12-10T04:03:24.583Z,146.30
2022-12-10T04:05:54.058Z,137.18
2022-12-10T04:10:50.161Z,134.90
2022-12-10T04:13:35.942Z,137.60
2022-12-10T04:16:21.884Z,142.77
2022-12-10T04:18:50.126Z,147.13
2022-12-10T04:21:37.107Z,138.43
2022-12-10T04:24:19.607Z,145.40
2022-12-10T04:26:56.890Z,135.38
2022-12-10T04:29:26.691Z,127.43
2022-12-10T04:31:55.375Z,131.23
2022-12-10T04:34:24.012Z,129.35
2022-12-10T04:36:53.681Z,109.05
2022-12-10T04:39:21.902Z,129.07
2022-12-10T04:41:51.382Z,135.63
2022-12-10T04:44:20.606Z,141.30
2022-12-10T04:46:49.427Z,128.90
2022-12-10T04:49:18.173Z,105.65
2022-12-10T04:51:46.590Z,134.30
2022-12-10T04:54:16.277Z,149.77
2022-12-10T04:56:45.008Z,137.40
2022-12-10T04:59:13.396Z,120.05
2022-12-10T05:01:41.843Z,140.18
2022-12-10T05:04:13.010Z,117.97
2022-12-10T05:06:42.286Z,123.10
2022-12-10T05:09:11.894Z,134.98
2022-12-10T05:11:41.654Z,128.88
2022-12-10T05:14:12.281Z,137.25
2022-12-10T05:16:40.363Z,133.52
2022-12-10T05:19:08.536Z,132.60
2022-12-10T05:21:50.526Z,123.25
2022-12-10T05:24:19.851Z,134.10
2022-12-10T05:26:52.044Z,131.90
2022-12-10T05:29:21.362Z,127.18
2022-12-10T05:31:49.518Z,130.43
2022-12-10T05:34:17.606Z,145.55
2022-12-10T05:36:45.727Z,129.52
2022-12-10T05:39:13.895Z,157.38
2022-12-10T05:41:42.757Z,146.63
2022-12-10T05:44:13.548Z,137.20
2022-12-10T05:46:42.136Z,127.97
2022-12-10T05:49:10.370Z,149.48
2022-12-10T05:51:39.683Z,153.25
2022-12-10T05:54:10.207Z,138.85
2022-12-10T05:56:39.447Z,149.38
2022-12-10T05:59:12.846Z,159.93
2022-12-10T06:01:46.154Z,164.27
2022-12-10T06:04:14.829Z,145.20
2022-12-10T06:06:43.882Z,121.53
2022-12-10T06:09:15.167Z,134.52
2022-12-10T06:11:43.561Z,139.27
2022-12-10T06:14:12.379Z,198.82
2022-12-10T06:16:41.578Z,156.60
2022-12-10T06:19:11.075Z,147.35
2022-12-10T06:24:08.472Z,147.40
2022-12-10T06:26:36.589Z,177.95
2022-12-10T06:29:05.690Z,132.18
2022-12-10T06:31:34.233Z,136.27
2022-12-10T06:34:02.590Z,120.90
2022-12-10T06:36:32.110Z,115.93
2022-12-10T06:41:28.322Z,128.68
2022-12-10T06:43:59.391Z,157.63
2022-12-10T06:46:29.603Z,142.27
2022-12-10T06:48:57.839Z,133.02
2022-12-10T06:51:26.118Z,135.73
2022-12-10T06:53:55.728Z,171.30
2022-12-10T06:56:24.470Z,148.60
2022-12-10T06:58:52.785Z,124.30
2022-12-10T07:01:22.808Z,153.45
2022-12-10T07:03:51.757Z,135.02
2022-12-10T07:06:20.982Z,103.03
2022-12-10T07:08:49.537Z,136.35
2022-12-10T07:11:21.063Z,98.23
2022-12-10T07:13:49.310Z,134.60
2022-12-10T07:16:19.390Z,141.52
2022-12-10T07:18:52.192Z,147.68
2022-12-10T07:21:23.086Z,152.55
2022-12-10T07:23:51.462Z,185.75
2022-12-10T07:26:21.117Z,149.02
2022-12-10T07:28:53.534Z,135.80
2022-12-10T07:31:23.773Z,138.90
2022-12-10T07:33:53.250Z,142.88
2022-12-10T07:36:23.481Z,172.65
2022-12-10T07:38:52.635Z,157.77
2022-12-10T07:41:23.388Z,285.60
2022-12-10T07:43:51.981Z,587.10
2022-12-10T07:46:22.562Z,273.57
2022-12-10T07:48:52.048Z,186.95
2022-12-10T07:51:22.350Z,151.25
2022-12-10T07:53:53.486Z,141.60
2022-12-10T07:56:24.093Z,132.05
2022-12-10T07:58:52.672Z,149.52
2022-12-10T08:01:23.582Z,153.17
2022-12-10T08:03:51.927Z,134.00
2022-12-10T08:06:21.826Z,144.90
2022-12-10T08:08:51.110Z,136.05
2022-12-10T08:11:21.220Z,144.73
2022-12-10T08:13:56.553Z,144.07
2022-12-10T08:16:27.808Z,152.80
2022-12-10T08:18:57.166Z,145.82
2022-12-10T08:21:27.787Z,142.50
2022-12-10T08:23:56.308Z,219.95
2022-12-10T08:26:26.964Z,149.43
2022-12-10T08:28:57.390Z,148.35
2022-12-10T08:31:26.874Z,148.25
2022-12-10T08:36:23.171Z,143.55
2022-12-10T08:38:51.754Z,138.48
2022-12-10T08:41:22.615Z,144.83
2022-12-10T08:43:52.858Z,124.75
2022-12-10T08:46:22.921Z,135.27
2022-12-10T08:48:51.326Z,141.77
2022-12-10T08:51:21.596Z,128.60
2022-12-10T08:53:49.746Z,125.03
2022-12-10T08:56:17.965Z,118.43
2022-12-10T08:58:46.128Z,116.35
2022-12-10T09:01:16.688Z,113.53
2022-12-10T09:03:46.261Z,112.88
2022-12-10T09:08:43.807Z,105.38
2022-12-10T09:11:14.723Z,105.43
2022-12-10T09:13:43.669Z,109.78
2022-12-10T09:16:12.500Z,120.85
2022-12-10T09:18:40.923Z,107.05
2022-12-10T09:21:13.451Z,99.22
2022-12-10T09:23:42.258Z,106.75
2022-12-10T09:26:12.403Z,77.30
2022-12-10T09:28:41.234Z,98.15
2022-12-10T09:31:14.503Z,92.28
2022-12-10T09:33:45.253Z,98.03
2022-12-10T09:36:15.894Z,87.82
2022-12-10T09:38:46.665Z,106.57
2022-12-10T09:41:36.510Z,107.72
2022-12-10T09:44:10.985Z,117.80
2022-12-10T09:46:50.529Z,117.75
2022-12-10T09:51:56.355Z,114.15
2022-12-10T09:54:28.546Z,111.97
2022-12-10T09:56:59.215Z,114.82
2022-12-10T09:59:32.580Z,109.60
2022-12-10T10:02:14.993Z,115.03
2022-12-10T10:04:43.313Z,109.95
2022-12-10T10:07:21.215Z,107.68
2022-12-10T10:09:50.145Z,98.20
2022-12-10T10:12:18.870Z,91.72
2022-12-10T10:14:47.866Z,92.82
2022-12-10T10:17:21.916Z,95.38
2022-12-10T10:19:50.593Z,72.53
2022-12-10T10:22:20.418Z,61.38
2022-12-10T10:24:48.971Z,85.65
2022-12-10T10:27:20.394Z,85.80
2022-12-10T10:29:55.892Z,84.57
2022-12-10T10:32:27.769Z,82.40
2022-12-10T10:34:58.385Z,77.78
2022-12-10T10:37:30.701Z,82.65
2022-12-10T10:40:00.140Z,78.07
2022-12-10T10:42:36.931Z,77.55
2022-12-10T10:45:06.596Z,77.75
2022-12-10T10:47:37.790Z,70.45
2022-12-10T10:50:07.777Z,73.03
2022-12-10T10:52:40.870Z,69.93
2022-12-10T10:55:36.611Z,69.90
2022-12-10T10:58:04.935Z,68.40
2022-12-10T11:00:33.046Z,67.80
2022-12-10T11:03:01.382Z,66.15
2022-12-10T11:05:36.421Z,62.90
2022-12-10T11:08:09.124Z,64.95
2022-12-10T11:10:38.867Z,60.78
2022-12-10T11:13:09.045Z,65.05
2022-12-10T11:15:41.178Z,64.15
2022-12-10T11:18:26.828Z,71.70
2022-12-10T11:21:03.343Z,79.40
2022-12-10T11:23:38.147Z,73.68
2022-12-10T11:26:39.676Z,69.65
2022-12-10T11:29:20.211Z,65.63
2022-12-10T11:31:58.726Z,67.22
2022-12-10T11:34:37.829Z,72.53
2022-12-10T11:37:14.616Z,70.85
2022-12-10T11:40:16.120Z,67.65
2022-12-10T11:42:56.900Z,62.42
2022-12-10T11:45:29.057Z,63.05
2022-12-10T11:48:12.203Z,68.45
2022-12-10T11:50:44.728Z,65.38
2022-12-10T11:53:29.836Z,62.17
2022-12-10T11:56:07.548Z,59.10
2022-12-10T11:59:04.999Z,68.70
2022-12-10T12:01:59.498Z,64.15
2022-12-10T12:04:40.507Z,63.88
2022-12-10T12:07:28.624Z,63.92
2022-12-10T12:10:11.595Z,64.55
2022-12-10T12:12:55.676Z,66.93
2022-12-10T12:15:29.797Z,65.43
2022-12-10T12:18:03.346Z,67.88
2022-12-10T12:20:36.145Z,65.05
2022-12-10T12:23:13.095Z,63.22
2022-12-10T12:25:46.542Z,66.60
2022-12-10T12:28:22.437Z,70.35
2022-12-10T12:30:59.068Z,64.10
2022-12-10T12:33:31.314Z,65.35
2022-12-10T12:36:04.759Z,65.88
2022-12-10T12:38:38.067Z,62.72
2022-12-10T12:41:11.257Z,63.58
2022-12-10T12:43:50.967Z,57.28
2022-12-10T12:46:23.094Z,54.58
2022-12-10T12:48:58.296Z,56.60
2022-12-10T12:51:31.670Z,58.83
2022-12-10T12:54:00.046Z,62.33
2022-12-10T12:56:44.188Z,58.10
2022-12-10T12:59:27.141Z,60.20
2022-12-10T13:01:59.700Z,66.85
2022-12-10T13:04:29.230Z,62.70
2022-12-10T13:07:45.215Z,64.07
2022-12-10T13:10:27.414Z,68.78
2022-12-10T13:13:19.278Z,67.25
2022-12-10T13:15:48.995Z,61.30
2022-12-10T13:18:37.227Z,72.07
2022-12-10T13:21:31.666Z,64.45
2022-12-10T13:24:12.243Z,76.15
2022-12-10T13:27:07.836Z,76.45
2022-12-10T13:29:47.950Z,74.97
2022-12-10T13:32:20.568Z,76.32
2022-12-10T13:34:50.793Z,80.90
2022-12-10T13:37:33.179Z,77.80
2022-12-10T13:40:17.347Z,90.15
2022-12-10T13:43:05.036Z,95.50
2022-12-10T13:45:37.237Z,93.50
2022-12-10T13:48:33.206Z,99.72
2022-12-10T13:51:23.162Z,88.82
2022-12-10T13:54:02.347Z,92.32
2022-12-10T13:56:32.256Z,91.80
2022-12-10T13:59:19.865Z,80.35
2022-12-10T14:01:57.316Z,79.65
2022-12-10T14:04:44.037Z,90.18
2022-12-10T14:07:14.711Z,80.40
2022-12-10T14:09:48.628Z,74.25
2022-12-10T14:12:19.101Z,80.53
2022-12-10T14:14:52.988Z,76.22
2022-12-10T14:17:22.951Z,81.78
2022-12-10T14:19:56.806Z,79.53
2022-12-10T14:22:31.666Z,87.13
2022-12-10T14:25:02.574Z,82.07
2022-12-10T14:27:31.969Z,86.63
2022-12-10T14:30:06.343Z,84.55
2022-12-10T14:32:39.510Z,89.55
2022-12-10T14:35:14.007Z,83.75
2022-12-10T14:37:44.526Z,91.82
2022-12-10T14:40:21.897Z,90.13
2022-12-10T14:42:50.482Z,85.93
2022-12-10T14:45:18.793Z,72.03
2022-12-10T14:47:48.912Z,91.85
2022-12-10T14:50:19.749Z,89.97
2022-12-10T14:52:53.235Z,83.47
2022-12-10T14:55:25.867Z,87.85
2022-12-10T14:57:57.138Z,89.85
2022-12-10T15:00:26.108Z,101.32
2022-12-10T15:02:58.168Z,93.70
2022-12-10T15:05:29.593Z,101.55
2022-12-10T15:07:59.505Z,96.47
2022-12-10T15:10:31.286Z,103.75
2022-12-10T15:12:59.695Z,115.40
2022-12-10T15:15:33.164Z,103.63
2022-12-10T15:18:05.245Z,118.32
2022-12-10T15:20:39.897Z,111.47
2022-12-10T15:23:19.951Z,113.25
2022-12-10T15:25:52.376Z,128.10
2022-12-10T15:28:30.345Z,122.05
2022-12-10T15:31:00.396Z,131.05
2022-12-10T15:33:35.185Z,142.80
2022-12-10T15:36:05.106Z,131.00
2022-12-10T15:38:34.108Z,117.22
2022-12-10T15:41:18.005Z,148.25
2022-12-10T15:43:56.169Z,128.55
2022-12-10T15:46:24.342Z,130.18
2022-12-10T15:48:52.441Z,160.27
2022-12-10T15:51:22.084Z,168.85
2022-12-10T15:53:50.208Z,152.57
2022-12-10T15:56:18.291Z,162.35
2022-12-10T15:58:46.370Z,147.50
2022-12-10T16:01:16.815Z,133.23
2022-12-10T16:03:45.666Z,136.68
2022-12-10T16:06:19.462Z,136.63
2022-12-10T16:08:49.355Z,137.30
2022-12-10T16:13:51.627Z,134.25
2022-12-10T16:16:20.444Z,201.70
2022-12-10T16:18:48.697Z,158.07
2022-12-10T16:21:16.869Z,142.98
2022-12-10T16:23:44.910Z,155.27
2022-12-10T16:26:20.159Z,140.30
2022-12-10T16:28:49.611Z,143.77
2022-12-10T16:31:20.416Z,135.43
2022-12-10T16:33:52.720Z,129.02
2022-12-10T16:36:20.888Z,131.13
2022-12-10T16:38:49.116Z,121.68
2022-12-10T16:41:21.334Z,124.70
2022-12-10T16:43:49.467Z,117.40
2022-12-10T16:46:18.159Z,124.90
2022-12-10T16:48:46.313Z,123.15
2022-12-10T16:51:22.777Z,119.82
2022-12-10T16:53:51.015Z,113.10
2022-12-10T16:56:20.577Z,118.55
2022-12-10T17:01:20.942Z,113.75
2022-12-10T17:03:49.509Z,114.70
2022-12-10T17:06:18.702Z,110.50
2022-12-10T17:08:47.553Z,124.07
2022-12-10T17:11:40.638Z,121.75
2022-12-10T17:14:16.012Z,113.63
2022-12-10T17:16:44.170Z,108.80
2022-12-10T17:19:14.127Z,113.60
2022-12-10T17:21:42.306Z,113.38
2022-12-10T17:24:10.401Z,121.90
2022-12-10T17:26:43.677Z,116.25
2022-12-10T17:29:17.597Z,114.68
2022-12-10T17:31:45.877Z,117.03
2022-12-10T17:34:15.148Z,107.63
2022-12-10T17:36:44.688Z,114.70
2022-12-10T17:41:51.947Z,113.10
2022-12-10T17:44:20.509Z,112.75
2022-12-10T17:46:48.652Z,113.37
2022-12-10T17:49:17.743Z,122.63
2022-12-10T17:51:46.611Z,128.45
2022-12-10T17:54:15.034Z,116.25
2022-12-10T17:56:44.729Z,123.80
2022-12-10T17:59:16.482Z,118.03
2022-12-10T18:01:48.398Z,115.78
2022-12-10T18:04:17.797Z,125.38
2022-12-10T18:06:45.989Z,100.03
2022-12-10T18:09:14.155Z,130.32
2022-12-10T18:11:44.503Z,138.07
2022-12-10T18:14:15.468Z,134.90
2022-12-10T18:16:44.226Z,121.30
2022-12-10T18:19:16.527Z,131.68
2022-12-10T18:21:49.022Z,128.13
2022-12-10T18:24:20.564Z,130.20
2022-12-10T18:26:48.706Z,131.00
2022-12-10T18:29:18.253Z,124.45
2022-12-10T18:34:17.192Z,120.90
2022-12-10T18:36:48.345Z,113.38
2022-12-10T18:39:19.907Z,119.78
2022-12-10T18:41:48.513Z,111.07
2022-12-10T18:44:22.031Z,93.27
2022-12-10T18:46:51.157Z,119.80
2022-12-10T18:49:20.460Z,118.05
2022-12-10T18:51:48.634Z,109.95
2022-12-10T18:54:16.913Z,113.70
2022-12-10T18:56:49.963Z,116.55
2022-12-10T18:59:27.361Z,117.25
2022-12-10T19:04:24.030Z,120.43
2022-12-10T19:06:52.275Z,106.47
2022-12-10T19:09:20.920Z,122.70
2022-12-10T19:11:51.673Z,119.80
2022-12-10T19:14:20.895Z,115.53
2022-12-10T19:16:51.826Z,106.75
2022-12-10T19:19:20.818Z,108.82
2022-12-10T19:21:49.535Z,104.28
2022-12-10T19:24:17.740Z,107.32
2022-12-10T19:26:46.016Z,107.10
2022-12-10T19:29:16.633Z,109.80
2022-12-10T19:31:46.275Z,103.05
2022-12-10T19:34:17.640Z,110.10
2022-12-10T19:36:46.182Z,117.18
2022-12-10T19:39:20.348Z,81.23
2022-12-10T19:41:48.779Z,107.03
2022-12-10T19:44:17.376Z,105.00
2022-12-10T19:46:45.962Z,109.20
2022-12-10T19:49:17.493Z,112.50
2022-12-10T19:51:45.719Z,114.20
2022-12-10T19:54:13.884Z,102.93
2022-12-10T19:56:42.966Z,103.70
2022-12-10T19:59:15.624Z,99.78
2022-12-10T20:01:44.369Z,99.35
2022-12-10T20:04:12.822Z,73.63
2022-12-10T20:06:43.924Z,100.10
2022-12-10T20:09:19.627Z,106.43
2022-12-10T20:11:48.352Z,93.05
2022-12-10T20:14:17.095Z,111.43
2022-12-10T20:16:46.731Z,113.13
2022-12-10T20:19:16.485Z,116.72
2022-12-10T20:21:46.078Z,114.35
2022-12-10T20:26:45.299Z,127.75
2022-12-10T20:29:18.326Z,138.00
2022-12-10T20:31:47.849Z,132.82
2022-12-10T20:34:16.083Z,131.07
2022-12-10T20:36:46.033Z,129.13
2022-12-10T20:39:19.588Z,128.15
2022-12-10T20:41:48.813Z,129.43
2022-12-10T20:44:17.644Z,117.05
2022-12-10T20:46:46.201Z,115.03
2022-12-10T20:49:15.724Z,96.77
2022-12-10T20:54:13.748Z,115.28
2022-12-10T20:56:42.234Z,109.37
2022-12-10T20:59:12.479Z,121.00
2022-12-10T21:01:41.032Z,116.88
2022-12-10T21:04:09.272Z,100.05
2022-12-10T21:06:37.488Z,107.28
2022-12-10T21:09:07.080Z,98.15
2022-12-10T21:14:07.094Z,107.55
2022-12-10T21:16:46.501Z,100.82
2022-12-10T21:19:14.879Z,99.45
2022-12-10T21:21:43.540Z,98.07
2022-12-10T21:24:13.204Z,79.47
2022-12-10T21:26:41.369Z,101.25
2022-12-10T21:29:10.034Z,98.90
2022-12-10T21:31:38.380Z,93.97
2022-12-10T21:34:07.019Z,96.63
2022-12-10T21:36:35.731Z,74.87
2022-12-10T21:39:05.109Z,97.63
2022-12-10T21:41:52.575Z,97.85
2022-12-10T21:44:20.866Z,84.90
2022-12-10T21:46:49.025Z,88.78
2022-12-10T21:49:17.406Z,83.55
2022-12-10T21:51:46.113Z,82.13
2022-12-10T21:54:14.280Z,77.88
2022-12-10T21:56:43.848Z,77.18
2022-12-10T22:01:40.067Z,82.30
2022-12-10T22:04:10.763Z,79.35
2022-12-10T22:06:41.358Z,74.88
2022-12-10T22:09:09.449Z,80.65
2022-12-10T22:11:37.625Z,75.38
2022-12-10T22:14:07.125Z,73.88
2022-12-10T22:19:05.798Z,66.07
2022-12-10T22:21:34.014Z,70.55
2022-12-10T22:24:02.106Z,69.47
2022-12-10T22:26:30.816Z,69.55
2022-12-10T22:28:58.890Z,52.33
2022-12-10T22:31:28.924Z,72.30
2022-12-10T22:33:57.112Z,75.55
2022-12-10T22:36:25.522Z,77.18
2022-12-10T22:41:23.080Z,68.20
2022-12-10T22:43:52.077Z,75.03
2022-12-10T22:46:21.116Z,76.82
2022-12-10T22:48:50.875Z,72.90
2022-12-10T22:51:19.123Z,77.07
2022-12-10T22:53:47.488Z,84.55
2022-12-10T22:56:16.357Z,85.47
2022-12-10T22:58:45.071Z,78.38
2022-12-10T23:01:16.561Z,81.78
2022-12-10T23:03:44.879Z,79.05
2022-12-10T23:06:14.560Z,87.07
2022-12-10T23:08:43.535Z,80.93
2022-12-10T23:11:13.893Z,85.88
2022-12-10T23:13:41.369Z,88.80
2022-12-10T23:16:13.093Z,89.95
2022-12-10T23:18:41.779Z,90.15
2022-12-10T23:21:17.767Z,91.97
2022-12-10T23:23:46.709Z,83.75
2022-12-10T23:26:15.256Z,94.38
2022-12-10T23:28:43.529Z,86.13
2022-12-10T23:31:12.381Z,86.00
2022-12-10T23:33:41.408Z,96.05
2022-12-10T23:36:11.998Z,94.20
2022-12-10T23:38:41.990Z,91.20
2022-12-10T23:41:12.270Z,102.10
2022-12-10T23:43:41.067Z,94.75
2022-12-10T23:46:09.421Z,82.32
2022-12-10T23:48:37.773Z,91.70
2022-12-10T23:51:06.945Z,91.50
2022-12-10T23:53:35.623Z,88.63
2022-12-10T23:56:14.431Z,87.55
2022-12-10T23:58:43.401Z,87.72
